sensor_id;sensor_type;location;lat;lon;timestamp;pressure;altitude;pressure_sealevel;temperature;humidity
22649;BME280;11491;41.942;24.220;2023-11-22T00:02:23;89268.59;;;9.99;66.74
22649;BME280;11491;41.942;24.220;2023-11-22T00:04:54;89268.25;;;9.81;67.19
22649;BME280;11491;41.942;24.220;2023-11-22T00:07:20;89270.75;;;9.70;66.99
22649;BME280;11491;41.942;24.220;2023-11-22T00:09:47;89280.94;;;9.64;67.55
22649;BME280;11491;41.942;24.220;2023-11-22T00:12:15;89275.59;;;9.64;68.01
22649;BME280;11491;41.942;24.220;2023-11-22T00:14:43;89279.38;;;9.63;67.86
22649;BME280;11491;41.942;24.220;2023-11-22T00:17:10;89275.59;;;9.64;68.01
22649;BME280;11491;41.942;24.220;2023-11-22T00:19:37;89266.31;;;9.58;68.17
22649;BME280;11491;41.942;24.220;2023-11-22T00:22:04;89269.06;;;9.62;68.43
22649;BME280;11491;41.942;24.220;2023-11-22T00:24:38;89266.75;;;9.60;68.88
22649;BME280;11491;41.942;24.220;2023-11-22T00:27:05;89260.28;;;9.61;68.58
22649;BME280;11491;41.942;24.220;2023-11-22T00:29:33;89263.66;;;9.58;68.82
22649;BME280;11491;41.942;24.220;2023-11-22T00:32:00;89274.75;;;9.60;68.75
22649;BME280;11491;41.942;24.220;2023-11-22T00:34:28;89268.97;;;9.58;68.94
22649;BME280;11491;41.942;24.220;2023-11-22T00:36:55;89269.69;;;9.55;69.32
22649;BME280;11491;41.942;24.220;2023-11-22T00:39:21;89269.97;;;9.50;69.53
22649;BME280;11491;41.942;24.220;2023-11-22T00:41:48;89269.28;;;9.53;69.50
22649;BME280;11491;41.942;24.220;2023-11-22T00:44:15;89273.78;;;9.49;69.53
22649;BME280;11491;41.942;24.220;2023-11-22T00:46:43;89272.31;;;9.52;70.54
22649;BME280;11491;41.942;24.220;2023-11-22T00:49:11;89263.50;;;9.51;70.77
22649;BME280;11491;41.942;24.220;2023-11-22T00:51:38;89256.06;;;9.41;71.46
22649;BME280;11491;41.942;24.220;2023-11-22T00:54:05;89258.44;;;9.46;71.52
22649;BME280;11491;41.942;24.220;2023-11-22T00:56:32;89242.31;;;9.19;71.42
22649;BME280;11491;41.942;24.220;2023-11-22T00:58:58;89282.59;;;9.34;71.94
22649;BME280;11491;41.942;24.220;2023-11-22T01:01:28;89275.72;;;9.33;72.04
22649;BME280;11491;41.942;24.220;2023-11-22T01:03:56;89260.50;;;9.33;71.64
22649;BME280;11491;41.942;24.220;2023-11-22T01:06:22;89256.63;;;9.31;71.55
22649;BME280;11491;41.942;24.220;2023-11-22T01:08:49;89266.81;;;9.25;72.48
22649;BME280;11491;41.942;24.220;2023-11-22T01:11:16;89262.97;;;9.22;72.52
22649;BME280;11491;41.942;24.220;2023-11-22T01:13:43;89261.91;;;9.27;72.11
22649;BME280;11491;41.942;24.220;2023-11-22T01:16:10;89251.56;;;9.25;71.83
22649;BME280;11491;41.942;24.220;2023-11-22T01:18:38;89252.00;;;9.27;71.87
22649;BME280;11491;41.942;24.220;2023-11-22T01:21:07;89247.38;;;9.24;71.40
22649;BME280;11491;41.942;24.220;2023-11-22T01:23:34;89259.31;;;9.31;71.21
22649;BME280;11491;41.942;24.220;2023-11-22T01:26:01;89259.03;;;9.36;70.73
22649;BME280;11491;41.942;24.220;2023-11-22T01:28:29;89251.94;;;9.43;70.55
22649;BME280;11491;41.942;24.220;2023-11-22T01:30:59;89252.34;;;9.45;70.75
22649;BME280;11491;41.942;24.220;2023-11-22T01:33:26;89242.16;;;9.51;70.54
22649;BME280;11491;41.942;24.220;2023-11-22T01:35:53;89235.72;;;9.52;70.36
22649;BME280;11491;41.942;24.220;2023-11-22T01:38:21;89221.09;;;9.46;70.59
22649;BME280;11491;41.942;24.220;2023-11-22T01:40:48;89206.50;;;9.40;70.17
22649;BME280;11491;41.942;24.220;2023-11-22T01:43:17;89226.31;;;9.39;70.19
22649;BME280;11491;41.942;24.220;2023-11-22T01:45:45;89221.63;;;9.32;70.64
22649;BME280;11491;41.942;24.220;2023-11-22T01:48:12;89228.47;;;9.33;70.86
22649;BME280;11491;41.942;24.220;2023-11-22T01:50:39;89223.53;;;9.32;70.53
22649;BME280;11491;41.942;24.220;2023-11-22T01:53:07;89224.34;;;9.16;70.94
22649;BME280;11491;41.942;24.220;2023-11-22T01:55:36;89221.66;;;9.16;70.87
22649;BME280;11491;41.942;24.220;2023-11-22T01:58:04;89216.00;;;9.18;71.13
22649;BME280;11491;41.942;24.220;2023-11-22T02:00:32;89213.38;;;9.21;71.17
22649;BME280;11491;41.942;24.220;2023-11-22T02:03:04;89210.72;;;9.21;71.01
22649;BME280;11491;41.942;24.220;2023-11-22T02:05:31;89198.03;;;9.15;71.70
22649;BME280;11491;41.942;24.220;2023-11-22T02:07:58;89192.19;;;9.09;71.72
22649;BME280;11491;41.942;24.220;2023-11-22T02:10:25;89167.09;;;8.91;72.16
22649;BME280;11491;41.942;24.220;2023-11-22T02:12:53;89210.31;;;9.00;72.62
22649;BME280;11491;41.942;24.220;2023-11-22T02:15:20;89196.00;;;9.08;72.46
22649;BME280;11491;41.942;24.220;2023-11-22T02:17:47;89194.72;;;9.21;72.25
22649;BME280;11491;41.942;24.220;2023-11-22T02:20:14;89191.09;;;9.30;72.08
22649;BME280;11491;41.942;24.220;2023-11-22T02:22:44;89191.50;;;9.32;72.02
22649;BME280;11491;41.942;24.220;2023-11-22T02:25:13;89197.38;;;9.41;72.07
22649;BME280;11491;41.942;24.220;2023-11-22T02:27:40;89191.75;;;9.46;71.66
22649;BME280;11491;41.942;24.220;2023-11-22T02:30:08;89195.28;;;9.50;71.58
22649;BME280;11491;41.942;24.220;2023-11-22T02:32:36;89189.50;;;9.48;72.18
22649;BME280;11491;41.942;24.220;2023-11-22T02:35:04;89193.59;;;9.42;72.42
22649;BME280;11491;41.942;24.220;2023-11-22T02:37:33;89192.25;;;9.52;71.76
22649;BME280;11491;41.942;24.220;2023-11-22T02:40:05;89190.56;;;9.43;72.41
22649;BME280;11491;41.942;24.220;2023-11-22T02:42:34;89199.06;;;9.49;72.28
22649;BME280;11491;41.942;24.220;2023-11-22T02:45:01;89200.31;;;9.55;71.71
22649;BME280;11491;41.942;24.220;2023-11-22T02:47:28;89193.84;;;9.56;72.05
22649;BME280;11491;41.942;24.220;2023-11-22T02:49:55;89203.41;;;9.57;72.00
22649;BME280;11491;41.942;24.220;2023-11-22T02:52:22;89193.03;;;9.52;72.20
22649;BME280;11491;41.942;24.220;2023-11-22T02:54:52;89200.44;;;9.62;72.26
22649;BME280;11491;41.942;24.220;2023-11-22T02:57:18;89201.16;;;9.59;72.01
22649;BME280;11491;41.942;24.220;2023-11-22T02:59:46;89200.75;;;9.57;72.32
22649;BME280;11491;41.942;24.220;2023-11-22T03:02:13;89200.19;;;9.48;72.19
22649;BME280;11491;41.942;24.220;2023-11-22T03:04:42;89191.09;;;9.30;72.35
22649;BME280;11491;41.942;24.220;2023-11-22T03:07:09;89188.63;;;9.21;72.95
22649;BME280;11491;41.942;24.220;2023-11-22T03:09:35;89185.53;;;9.19;72.96
22649;BME280;11491;41.942;24.220;2023-11-22T03:12:03;89187.66;;;9.10;73.32
22649;BME280;11491;41.942;24.220;2023-11-22T03:14:30;89191.00;;;9.06;73.75
22649;BME280;11491;41.942;24.220;2023-11-22T03:16:58;89182.78;;;8.96;73.58
22649;BME280;11491;41.942;24.220;2023-11-22T03:19:25;89181.66;;;8.77;74.41
22649;BME280;11491;41.942;24.220;2023-11-22T03:21:51;89186.16;;;8.73;74.46
22649;BME280;11491;41.942;24.220;2023-11-22T03:24:18;89181.97;;;8.56;75.36
22649;BME280;11491;41.942;24.220;2023-11-22T03:26:45;89196.16;;;8.60;75.46
22649;BME280;11491;41.942;24.220;2023-11-22T03:29:12;89183.59;;;8.61;75.26
22649;BME280;11491;41.942;24.220;2023-11-22T03:31:41;89181.06;;;8.49;75.92
22649;BME280;11491;41.942;24.220;2023-11-22T03:34:09;89167.31;;;8.47;75.99
22649;BME280;11491;41.942;24.220;2023-11-22T03:36:36;89164.44;;;8.20;76.93
22649;BME280;11491;41.942;24.220;2023-11-22T03:39:03;89171.50;;;8.32;77.23
22649;BME280;11491;41.942;24.220;2023-11-22T03:41:30;89195.41;;;8.28;77.66
22649;BME280;11491;41.942;24.220;2023-11-22T03:43:56;89195.47;;;8.32;77.82
22649;BME280;11491;41.942;24.220;2023-11-22T03:46:23;89203.06;;;8.46;77.34
22649;BME280;11491;41.942;24.220;2023-11-22T03:48:50;89207.25;;;8.47;77.47
22649;BME280;11491;41.942;24.220;2023-11-22T03:51:18;89202.53;;;8.56;77.32
22649;BME280;11491;41.942;24.220;2023-11-22T03:53:45;89208.00;;;8.63;77.39
22649;BME280;11491;41.942;24.220;2023-11-22T03:56:11;89193.72;;;8.71;76.70
22649;BME280;11491;41.942;24.220;2023-11-22T03:58:39;89198.50;;;8.81;75.84
22649;BME280;11491;41.942;24.220;2023-11-22T04:01:06;89190.38;;;8.94;75.70
22649;BME280;11491;41.942;24.220;2023-11-22T04:03:33;89193.59;;;9.03;75.03
22649;BME280;11491;41.942;24.220;2023-11-22T04:05:59;89193.38;;;9.31;73.70
22649;BME280;11491;41.942;24.220;2023-11-22T04:08:28;89197.09;;;9.46;72.89
22649;BME280;11491;41.942;24.220;2023-11-22T04:10:54;89206.06;;;9.57;72.50
22649;BME280;11491;41.942;24.220;2023-11-22T04:13:21;89212.38;;;9.68;72.40
22649;BME280;11491;41.942;24.220;2023-11-22T04:15:50;89207.03;;;9.68;72.11
22649;BME280;11491;41.942;24.220;2023-11-22T04:18:16;89214.63;;;9.66;72.29
22649;BME280;11491;41.942;24.220;2023-11-22T04:20:43;89203.25;;;9.69;72.00
22649;BME280;11491;41.942;24.220;2023-11-22T04:23:11;89222.47;;;9.79;71.63
22649;BME280;11491;41.942;24.220;2023-11-22T04:25:40;89218.38;;;9.85;71.40
22649;BME280;11491;41.942;24.220;2023-11-22T04:28:07;89217.97;;;9.83;72.11
22649;BME280;11491;41.942;24.220;2023-11-22T04:30:35;89222.66;;;9.89;71.74
22649;BME280;11491;41.942;24.220;2023-11-22T04:33:02;89224.16;;;9.87;72.45
22649;BME280;11491;41.942;24.220;2023-11-22T04:35:29;89233.94;;;10.02;72.04
22649;BME280;11491;41.942;24.220;2023-11-22T04:37:59;89242.28;;;10.01;72.06
22649;BME280;11491;41.942;24.220;2023-11-22T04:40:26;89247.28;;;10.02;72.27
22649;BME280;11491;41.942;24.220;2023-11-22T04:42:54;89246.28;;;10.10;71.77
22649;BME280;11491;41.942;24.220;2023-11-22T04:45:21;89263.56;;;10.17;71.79
22649;BME280;11491;41.942;24.220;2023-11-22T04:47:47;89268.91;;;10.17;71.64
22649;BME280;11491;41.942;24.220;2023-11-22T04:50:14;89272.09;;;10.26;71.02
22649;BME280;11491;41.942;24.220;2023-11-22T04:52:41;89277.22;;;10.11;71.55
22649;BME280;11491;41.942;24.220;2023-11-22T04:55:08;89269.56;;;10.10;71.68
22649;BME280;11491;41.942;24.220;2023-11-22T04:57:35;89280.09;;;10.03;71.68
22649;BME280;11491;41.942;24.220;2023-11-22T05:00:06;89280.25;;;10.10;71.89
22649;BME280;11491;41.942;24.220;2023-11-22T05:02:33;89274.06;;;10.06;71.67
22649;BME280;11491;41.942;24.220;2023-11-22T05:05:00;89286.63;;;10.05;71.87
22649;BME280;11491;41.942;24.220;2023-11-22T05:07:26;89280.06;;;9.99;72.07
22649;BME280;11491;41.942;24.220;2023-11-22T05:09:53;89285.56;;;9.87;72.15
22649;BME280;11491;41.942;24.220;2023-11-22T05:12:20;89292.00;;;9.86;72.78
22649;BME280;11491;41.942;24.220;2023-11-22T05:14:47;89286.53;;;9.79;73.46
22649;BME280;11491;41.942;24.220;2023-11-22T05:17:15;89294.72;;;9.66;74.26
22649;BME280;11491;41.942;24.220;2023-11-22T05:19:42;89293.16;;;9.65;74.32
22649;BME280;11491;41.942;24.220;2023-11-22T05:22:09;89291.19;;;9.62;74.53
22649;BME280;11491;41.942;24.220;2023-11-22T05:24:35;89289.91;;;9.56;75.17
22649;BME280;11491;41.942;24.220;2023-11-22T05:27:06;89297.91;;;9.56;75.98
22649;BME280;11491;41.942;24.220;2023-11-22T05:29:33;89286.75;;;9.51;77.41
22649;BME280;11491;41.942;24.220;2023-11-22T05:32:00;89277.50;;;9.44;78.11
22649;BME280;11491;41.942;24.220;2023-11-22T05:34:29;89297.38;;;9.47;79.05
22649;BME280;11491;41.942;24.220;2023-11-22T05:36:56;89291.88;;;9.40;80.20
22649;BME280;11491;41.942;24.220;2023-11-22T05:39:22;89292.72;;;9.44;79.93
22649;BME280;11491;41.942;24.220;2023-11-22T05:41:50;89264.63;;;9.31;79.54
22649;BME280;11491;41.942;24.220;2023-11-22T05:44:16;89298.75;;;9.41;79.46
22649;BME280;11491;41.942;24.220;2023-11-22T05:46:43;89297.53;;;9.54;79.29
22649;BME280;11491;41.942;24.220;2023-11-22T05:49:10;89290.00;;;9.60;78.93
22649;BME280;11491;41.942;24.220;2023-11-22T05:51:38;89294.00;;;9.69;78.67
22649;BME280;11491;41.942;24.220;2023-11-22T05:54:06;89288.78;;;9.77;78.24
22649;BME280;11491;41.942;24.220;2023-11-22T05:56:33;89301.16;;;9.85;77.92
22649;BME280;11491;41.942;24.220;2023-11-22T05:59:00;89306.44;;;9.81;77.88
22649;BME280;11491;41.942;24.220;2023-11-22T06:01:26;89317.72;;;9.94;77.35
22649;BME280;11491;41.942;24.220;2023-11-22T06:03:53;89313.63;;;10.00;77.49
22649;BME280;11491;41.942;24.220;2023-11-22T06:06:20;89313.28;;;10.02;77.08
22649;BME280;11491;41.942;24.220;2023-11-22T06:08:49;89316.88;;;10.09;77.25
22649;BME280;11491;41.942;24.220;2023-11-22T06:11:15;89329.06;;;10.10;76.59
22649;BME280;11491;41.942;24.220;2023-11-22T06:13:42;89320.63;;;10.08;76.28
22649;BME280;11491;41.942;24.220;2023-11-22T06:16:09;89325.22;;;10.08;76.23
22649;BME280;11491;41.942;24.220;2023-11-22T06:18:36;89325.34;;;10.15;76.36
22649;BME280;11491;41.942;24.220;2023-11-22T06:21:05;89325.28;;;10.11;75.45
22649;BME280;11491;41.942;24.220;2023-11-22T06:23:32;89321.63;;;10.20;75.30
22649;BME280;11491;41.942;24.220;2023-11-22T06:26:00;89316.28;;;10.20;75.23
22649;BME280;11491;41.942;24.220;2023-11-22T06:28:27;89314.44;;;10.24;75.21
22649;BME280;11491;41.942;24.220;2023-11-22T06:30:54;89312.63;;;10.28;75.24
22649;BME280;11491;41.942;24.220;2023-11-22T06:33:21;89310.22;;;10.23;75.32
22649;BME280;11491;41.942;24.220;2023-11-22T06:35:48;89327.25;;;10.34;75.30
22649;BME280;11491;41.942;24.220;2023-11-22T06:38:14;89333.13;;;10.43;75.23
22649;BME280;11491;41.942;24.220;2023-11-22T06:40:42;89333.97;;;10.47;75.16
22649;BME280;11491;41.942;24.220;2023-11-22T06:43:10;89321.31;;;10.44;75.29
22649;BME280;11491;41.942;24.220;2023-11-22T06:45:37;89323.69;;;10.49;74.92
22649;BME280;11491;41.942;24.220;2023-11-22T06:48:04;89331.28;;;10.47;74.61
22649;BME280;11491;41.942;24.220;2023-11-22T06:50:31;89319.13;;;10.50;74.62
22649;BME280;11491;41.942;24.220;2023-11-22T06:52:57;89306.63;;;10.57;74.17
22649;BME280;11491;41.942;24.220;2023-11-22T06:55:25;89320.25;;;10.72;74.03
22649;BME280;11491;41.942;24.220;2023-11-22T06:57:52;89319.50;;;10.75;73.70
22649;BME280;11491;41.942;24.220;2023-11-22T07:00:21;89314.16;;;10.75;73.41
22649;BME280;11491;41.942;24.220;2023-11-22T07:02:48;89324.22;;;10.82;73.00
22649;BME280;11491;41.942;24.220;2023-11-22T07:05:14;89337.25;;;10.83;72.88
22649;BME280;11491;41.942;24.220;2023-11-22T07:07:41;89335.50;;;10.94;72.88
22649;BME280;11491;41.942;24.220;2023-11-22T07:10:08;89340.22;;;11.05;72.84
22649;BME280;11491;41.942;24.220;2023-11-22T07:12:37;89337.66;;;11.12;72.75
22649;BME280;11491;41.942;24.220;2023-11-22T07:15:06;89347.31;;;11.20;72.14
22649;BME280;11491;41.942;24.220;2023-11-22T07:17:34;89339.19;;;11.13;72.58
22649;BME280;11491;41.942;24.220;2023-11-22T07:20:01;89336.25;;;11.18;72.41
22649;BME280;11491;41.942;24.220;2023-11-22T07:22:28;89346.53;;;11.16;73.15
22649;BME280;11491;41.942;24.220;2023-11-22T07:24:55;89348.56;;;11.26;72.81
22649;BME280;11491;41.942;24.220;2023-11-22T07:27:25;89360.00;;;11.23;72.94
22649;BME280;11491;41.942;24.220;2023-11-22T07:29:52;89358.34;;;11.15;72.98
22649;BME280;11491;41.942;24.220;2023-11-22T07:32:19;89351.06;;;11.15;73.24
22649;BME280;11491;41.942;24.220;2023-11-22T07:34:47;89369.66;;;11.05;73.74
22649;BME280;11491;41.942;24.220;2023-11-22T07:37:14;89319.03;;;10.92;73.55
22649;BME280;11491;41.942;24.220;2023-11-22T07:39:42;89356.16;;;11.20;73.20
22649;BME280;11491;41.942;24.220;2023-11-22T07:42:09;89359.06;;;11.12;73.95
22649;BME280;11491;41.942;24.220;2023-11-22T07:44:36;89358.91;;;11.01;74.12
22649;BME280;11491;41.942;24.220;2023-11-22T07:47:03;89357.00;;;11.02;74.18
22649;BME280;11491;41.942;24.220;2023-11-22T07:49:33;89363.75;;;10.95;74.27
22649;BME280;11491;41.942;24.220;2023-11-22T07:52:04;89358.22;;;11.08;74.51
22649;BME280;11491;41.942;24.220;2023-11-22T07:54:31;89356.03;;;11.13;74.24
22649;BME280;11491;41.942;24.220;2023-11-22T07:56:58;89369.56;;;11.24;74.11
22649;BME280;11491;41.942;24.220;2023-11-22T07:59:25;89359.81;;;11.35;73.32
22649;BME280;11491;41.942;24.220;2023-11-22T08:01:52;89358.88;;;11.51;73.25
22649;BME280;11491;41.942;24.220;2023-11-22T08:04:20;89365.81;;;11.55;73.20
22649;BME280;11491;41.942;24.220;2023-11-22T08:06:48;89360.69;;;11.73;72.39
22649;BME280;11491;41.942;24.220;2023-11-22T08:09:18;89344.84;;;11.61;72.60
22649;BME280;11491;41.942;24.220;2023-11-22T08:11:45;89353.78;;;11.72;72.58
22649;BME280;11491;41.942;24.220;2023-11-22T08:14:12;89352.22;;;11.68;72.80
22649;BME280;11491;41.942;24.220;2023-11-22T08:16:39;89350.31;;;11.68;73.14
22649;BME280;11491;41.942;24.220;2023-11-22T08:19:08;89361.50;;;11.77;72.83
22649;BME280;11491;41.942;24.220;2023-11-22T08:21:35;89352.34;;;11.78;72.44
22649;BME280;11491;41.942;24.220;2023-11-22T08:24:02;89361.50;;;11.77;72.65
22649;BME280;11491;41.942;24.220;2023-11-22T08:26:30;89362.31;;;11.81;72.70
22649;BME280;11491;41.942;24.220;2023-11-22T08:28:57;89356.22;;;11.84;72.73
22649;BME280;11491;41.942;24.220;2023-11-22T08:31:24;89356.69;;;11.87;72.74
22649;BME280;11491;41.942;24.220;2023-11-22T08:33:51;89353.13;;;11.82;72.59
22649;BME280;11491;41.942;24.220;2023-11-22T08:36:18;89357.44;;;11.87;72.84
22649;BME280;11491;41.942;24.220;2023-11-22T08:38:44;89356.97;;;11.81;73.44
22649;BME280;11491;41.942;24.220;2023-11-22T08:41:11;89363.47;;;11.80;73.48
22649;BME280;11491;41.942;24.220;2023-11-22T08:43:40;89368.00;;;11.76;73.95
22649;BME280;11491;41.942;24.220;2023-11-22T08:46:07;89358.56;;;11.86;74.36
22649;BME280;11491;41.942;24.220;2023-11-22T08:48:34;89362.38;;;11.85;73.02
22649;BME280;11491;41.942;24.220;2023-11-22T08:51:01;89346.03;;;11.90;73.42
22649;BME280;11491;41.942;24.220;2023-11-22T08:53:29;89349.22;;;12.03;72.71
22649;BME280;11491;41.942;24.220;2023-11-22T08:55:56;89356.72;;;12.20;74.15
22649;BME280;11491;41.942;24.220;2023-11-22T08:58:22;89347.94;;;12.23;72.67
22649;BME280;11491;41.942;24.220;2023-11-22T09:00:51;89360.50;;;12.19;72.00
22649;BME280;11491;41.942;24.220;2023-11-22T09:03:19;89368.69;;;12.00;73.01
22649;BME280;11491;41.942;24.220;2023-11-22T09:05:46;89373.88;;;11.85;72.79
22649;BME280;11491;41.942;24.220;2023-11-22T09:08:14;89368.50;;;11.85;73.26
22649;BME280;11491;41.942;24.220;2023-11-22T09:10:41;89375.09;;;11.65;72.09
22649;BME280;11491;41.942;24.220;2023-11-22T09:13:08;89375.31;;;11.79;73.25
22649;BME280;11491;41.942;24.220;2023-11-22T09:15:36;89358.44;;;11.75;72.42
22649;BME280;11491;41.942;24.220;2023-11-22T09:18:05;89382.97;;;11.81;73.22
22649;BME280;11491;41.942;24.220;2023-11-22T09:20:33;89370.84;;;11.87;72.03
22649;BME280;11491;41.942;24.220;2023-11-22T09:23:00;89369.34;;;11.90;71.62
22649;BME280;11491;41.942;24.220;2023-11-22T09:25:27;89358.06;;;12.07;71.29
22649;BME280;11491;41.942;24.220;2023-11-22T09:27:55;89375.06;;;12.18;71.47
22649;BME280;11491;41.942;24.220;2023-11-22T09:30:25;89381.94;;;12.19;71.68
22649;BME280;11491;41.942;24.220;2023-11-22T09:33:05;89364.25;;;12.11;72.27
22649;BME280;11491;41.942;24.220;2023-11-22T09:35:33;89377.22;;;12.09;72.49
22649;BME280;11491;41.942;24.220;2023-11-22T09:38:01;89381.84;;;12.12;72.46
22649;BME280;11491;41.942;24.220;2023-11-22T09:40:28;89390.28;;;12.11;71.43
22649;BME280;11491;41.942;24.220;2023-11-22T09:42:57;89400.28;;;12.17;72.67
22649;BME280;11491;41.942;24.220;2023-11-22T09:45:25;89404.22;;;12.23;72.68
22649;BME280;11491;41.942;24.220;2023-11-22T09:47:51;89398.84;;;12.23;72.13
22649;BME280;11491;41.942;24.220;2023-11-22T09:50:40;89395.75;;;12.21;72.29
22649;BME280;11491;41.942;24.220;2023-11-22T09:53:18;89397.00;;;12.27;71.79
22649;BME280;11491;41.942;24.220;2023-11-22T09:55:46;89389.03;;;12.35;71.46
22649;BME280;11491;41.942;24.220;2023-11-22T09:58:13;89377.72;;;12.52;71.28
22649;BME280;11491;41.942;24.220;2023-11-22T10:00:43;89381.75;;;12.73;71.27
22649;BME280;11491;41.942;24.220;2023-11-22T10:03:10;89383.44;;;12.88;70.00
22649;BME280;11491;41.942;24.220;2023-11-22T10:05:41;89388.25;;;13.12;70.69
22649;BME280;11491;41.942;24.220;2023-11-22T10:08:08;89389.03;;;13.13;68.94
22649;BME280;11491;41.942;24.220;2023-11-22T10:10:36;89383.81;;;13.27;69.93
22649;BME280;11491;41.942;24.220;2023-11-22T10:13:03;89389.31;;;13.45;69.31
22649;BME280;11491;41.942;24.220;2023-11-22T10:15:31;89384.03;;;13.60;66.87
22649;BME280;11491;41.942;24.220;2023-11-22T10:17:59;89380.94;;;13.57;66.92
22649;BME280;11491;41.942;24.220;2023-11-22T10:20:36;89380.94;;;13.54;67.38
22649;BME280;11491;41.942;24.220;2023-11-22T10:23:08;89378.69;;;13.63;67.22
22649;BME280;11491;41.942;24.220;2023-11-22T10:25:36;89381.69;;;13.54;67.28
22649;BME280;11491;41.942;24.220;2023-11-22T10:28:03;89383.66;;;13.61;67.04
22649;BME280;11491;41.942;24.220;2023-11-22T10:30:29;89382.13;;;13.64;66.93
22649;BME280;11491;41.942;24.220;2023-11-22T10:32:57;89384.19;;;13.85;66.95
22649;BME280;11491;41.942;24.220;2023-11-22T10:35:24;89373.50;;;13.92;66.54
22649;BME280;11491;41.942;24.220;2023-11-22T10:37:52;89378.91;;;14.03;67.39
22649;BME280;11491;41.942;24.220;2023-11-22T10:40:21;89365.13;;;14.08;67.81
22649;BME280;11491;41.942;24.220;2023-11-22T10:42:50;89369.78;;;14.21;66.13
22649;BME280;11491;41.942;24.220;2023-11-22T10:45:19;89369.78;;;14.25;66.21
22649;BME280;11491;41.942;24.220;2023-11-22T10:47:49;89369.44;;;14.30;65.52
22649;BME280;11491;41.942;24.220;2023-11-22T10:50:19;89369.78;;;14.25;65.89
22649;BME280;11491;41.942;24.220;2023-11-22T10:52:47;89381.75;;;14.35;66.12
22649;BME280;11491;41.942;24.220;2023-11-22T10:55:20;89378.31;;;14.41;67.66
22649;BME280;11491;41.942;24.220;2023-11-22T10:57:51;89385.19;;;14.32;64.72
22649;BME280;11491;41.942;24.220;2023-11-22T11:00:19;89374.41;;;14.21;64.69
22649;BME280;11491;41.942;24.220;2023-11-22T11:02:51;89373.66;;;14.24;65.62
22649;BME280;11491;41.942;24.220;2023-11-22T11:05:25;89378.91;;;14.03;66.32
22649;BME280;11491;41.942;24.220;2023-11-22T11:07:59;89385.00;;;13.92;66.45
22649;BME280;11491;41.942;24.220;2023-11-22T11:10:31;89382.66;;;13.87;66.01
22649;BME280;11491;41.942;24.220;2023-11-22T11:12:58;89385.00;;;13.96;66.77
22649;BME280;11491;41.942;24.220;2023-11-22T11:15:25;89390.50;;;14.14;66.80
22649;BME280;11491;41.942;24.220;2023-11-22T11:17:53;89388.19;;;14.16;66.60
22649;BME280;11491;41.942;24.220;2023-11-22T11:20:22;89384.00;;;14.22;66.83
22649;BME280;11491;41.942;24.220;2023-11-22T11:22:49;89398.56;;;14.14;65.64
22649;BME280;11491;41.942;24.220;2023-11-22T11:25:17;89396.56;;;13.96;65.38
22649;BME280;11491;41.942;24.220;2023-11-22T11:27:55;89395.91;;;13.58;66.29
22649;BME280;11491;41.942;24.220;2023-11-22T11:30:45;89408.50;;;13.47;67.43
22649;BME280;11491;41.942;24.220;2023-11-22T11:33:14;89409.19;;;13.37;68.04
22649;BME280;11491;41.942;24.220;2023-11-22T11:35:44;89415.75;;;13.43;68.32
22649;BME280;11491;41.942;24.220;2023-11-22T11:38:15;89410.72;;;13.38;69.18
22649;BME280;11491;41.942;24.220;2023-11-22T11:40:43;89410.91;;;13.60;69.49
22649;BME280;11491;41.942;24.220;2023-11-22T11:43:13;89411.06;;;13.88;67.59
22649;BME280;11491;41.942;24.220;2023-11-22T11:45:42;89415.00;;;14.05;66.21
22649;BME280;11491;41.942;24.220;2023-11-22T11:48:12;89414.38;;;14.26;66.42
22649;BME280;11491;41.942;24.220;2023-11-22T11:50:39;89408.22;;;14.29;65.05
22649;BME280;11491;41.942;24.220;2023-11-22T11:53:06;89410.16;;;14.32;63.91
22649;BME280;11491;41.942;24.220;2023-11-22T11:55:33;89408.28;;;14.43;64.64
22649;BME280;11491;41.942;24.220;2023-11-22T11:58:04;89396.84;;;14.54;64.54
22649;BME280;11491;41.942;24.220;2023-11-22T12:00:34;89393.41;;;14.64;64.67
22649;BME280;11491;41.942;24.220;2023-11-22T12:03:06;89390.75;;;14.71;63.36
22649;BME280;11491;41.942;24.220;2023-11-22T12:05:33;89379.66;;;14.91;64.16
22649;BME280;11491;41.942;24.220;2023-11-22T12:07:59;89381.59;;;15.08;62.86
22649;BME280;11491;41.942;24.220;2023-11-22T12:10:26;89392.38;;;15.29;61.81
22649;BME280;11491;41.942;24.220;2023-11-22T12:12:53;89397.78;;;15.51;61.17
22649;BME280;11491;41.942;24.220;2023-11-22T12:15:20;89391.25;;;15.74;59.81
22649;BME280;11491;41.942;24.220;2023-11-22T12:17:49;89405.44;;;16.06;60.37
22649;BME280;11491;41.942;24.220;2023-11-22T12:36:29;89406.63;;;15.98;58.15
22649;BME280;11491;41.942;24.220;2023-11-22T12:38:56;89414.69;;;15.87;58.78
22649;BME280;11491;41.942;24.220;2023-11-22T12:41:26;89407.03;;;15.79;58.04
22649;BME280;11491;41.942;24.220;2023-11-22T12:44:05;89414.69;;;15.62;58.89
22649;BME280;11491;41.942;24.220;2023-11-22T12:46:45;89427.78;;;15.53;59.25
22649;BME280;11491;41.942;24.220;2023-11-22T12:49:14;89439.72;;;15.56;59.57
22649;BME280;11491;41.942;24.220;2023-11-22T12:51:48;89443.19;;;15.56;59.91
22649;BME280;11491;41.942;24.220;2023-11-22T12:54:15;89436.25;;;15.48;59.23
22649;BME280;11491;41.942;24.220;2023-11-22T12:56:42;89430.06;;;15.37;58.74
22649;BME280;11491;41.942;24.220;2023-11-22T12:59:10;89440.06;;;15.18;59.88
22649;BME280;11491;41.942;24.220;2023-11-22T13:01:37;89442.34;;;15.05;60.81
22649;BME280;11491;41.942;24.220;2023-11-22T13:04:04;89446.97;;;15.12;61.13
22649;BME280;11491;41.942;24.220;2023-11-22T13:06:31;89444.63;;;15.00;60.83
22649;BME280;11491;41.942;24.220;2023-11-22T13:08:58;89446.91;;;14.98;61.14
22649;BME280;11491;41.942;24.220;2023-11-22T13:11:25;89455.38;;;14.96;61.29
22649;BME280;11491;41.942;24.220;2023-11-22T13:13:52;89456.94;;;15.01;61.80
22649;BME280;11491;41.942;24.220;2023-11-22T13:16:19;89458.06;;;14.93;61.26